Historyczne dane pomiarowe

Dodano dane terminowe – wersja testowa.

Dane z okresu 1951-2019

Wersja bazy: 1.34 [2019-03-16, lista zmian], aktualizacja planowana na 2019-04-15

Dane meteo z obszaru Polski uzyskane na podstawie danych udostępnionych przez Instytut Meteorologii i Gospodarki Wodnej – Państwowy Instytut Badawczy.

 

Wybierz Datę:    

       

TemperaturaWilgotnośćWiatrCiśnienieOpadyŚniegCzas trwania zjawisk
 Stacja t tx tn tng RH VA  wxwx mslp ppp RRR   cm mm wxwxwxwxwxwxwx
1961-08-14 11.7 18.0 5.5 2.4 80.8- 6.7 1.3---- 0.0------------
1961-08-13 11.0 19.3 10.0 10.4 87.3- 7.0 3.7---- 4.2------------
1961-08-12 19.8 25.7 15.6 12.2 81.5- 5.3 3.0---- 6.8------------
1961-08-11 22.9 31.3 16.6 16.1 67.3- 1.3 5.0---- 0.0------------
1961-08-10 22.0 30.6 14.7 15.2 78.5- 1.0 1.3---- 0.0------------
1961-08-09 20.1 28.7 14.5 11.2 80.3- 3.3 1.3---- 0.0------------
1961-08-08 19.9 26.9 15.4 11.8 82.5- 4.0 2.3---- 0.0------------
1961-08-07 21.9 28.1 15.0 10.8 69.0- 0.7 3.3---- 0.0------------
1961-08-06 19.0 27.4 9.6 6.4 75.0- 0.0 2.0---- 0.0------------
1961-08-05 15.9 22.7 11.1 8.7 77.5- 2.7 1.0---- 0.0------------
1961-08-04 14.0 18.4 11.1 9.3 83.5- 6.0 1.3---- 0.0------------
1961-08-03 16.0 21.5 10.8 7.9 83.8- 7.3 2.0---- 10.3------------
1961-08-02 15.4 24.7 6.5 3.4 81.5- 0.0 1.0---- 0.0------------
1961-08-01 12.9 20.8 6.5 3.4 82.3- 5.7 1.3---- 0.0------------
1961-07-31 11.0 14.7 8.4 7.4 90.3- 8.0 2.3---- 3.2------------
1961-07-30 9.4 10.8 8.6 8.3 93.5- 8.0 5.0---- 17.6------------
1961-07-29 11.8 20.1 10.5 13.2 94.5- 8.0 2.7---- 22.6------------
1961-07-28 19.4 27.1 14.5 10.9 76.0- 5.3 1.7---- 4.1------------
1961-07-27 17.7 24.6 8.6 6.2 75.0- 4.0 1.0---- 0.0------------
1961-07-26 13.5 21.4 6.9 3.9 76.5- 3.7 1.0---- 0.0------------
1961-07-25 12.8 15.7 8.3 6.0 70.3- 5.7 2.3---- 0.0------------
1961-07-24 13.1 16.4 11.0 9.8 75.3- 7.7 2.3---- 0.0------------
1961-07-23 13.7 18.8 7.5 5.5 86.8- 6.0 1.7---- 0.2------------
1961-07-22 12.7 18.3 10.0 8.4 81.5- 5.7 1.0---- 0.6------------
1961-07-21 13.4 18.8 6.9 4.4 78.0- 5.3 1.3---- 1.7------------
1961-07-20 11.5 15.9 8.0 4.9 92.8- 7.7 1.0---- 15.0------------
1961-07-19 12.1 18.5 9.9 7.4 85.3- 5.3 1.3---- 0.4------------
1961-07-18 13.0 18.7 7.0 5.0 77.8- 5.7 1.3---- 0.7------------
1961-07-17 13.2 19.4 11.9 10.3 84.8- 5.0 1.7---- 3.2------------
1961-07-16 15.9 21.3 12.3 9.7 77.5- 4.7 3.3---- 0.8------------
1961-07-15 15.0 21.7 6.7 4.2 81.0- 4.0 1.3---- 6.2------------
1961-07-14 12.1 17.5 10.1 8.0 77.3- 4.3 0.7---- 0.6------------
1961-07-13 17.7 26.1 12.6 8.9 81.8- 4.3 5.0---- 7.8------------
1961-07-12 18.0 26.0 7.4 4.6 67.5- 2.7 2.0---- 0.0------------
1961-07-11 12.5 19.3 5.5 4.9 72.5- 5.3 1.0---- 0.0------------
1961-07-10 12.9 17.9 9.0 6.6 76.5- 6.7 3.0---- 2.5------------
1961-07-09 13.1 20.5 8.0 6.3 78.5- 4.3 0.7---- 7.6------------
1961-07-08 12.7 19.3 8.7 6.3 74.5- 1.7 1.3---- 0.0------------
1961-07-07 11.6 16.3 4.1 2.0 73.8- 7.0 1.7---- 0.0------------
1961-07-06 9.6 16.0 6.0 5.9 81.5- 4.0 1.3---- 0.0------------
1961-07-05 12.6 19.4 10.1 11.4 83.8- 6.3 3.3---- 5.9------------
1961-07-04 20.5 29.6 12.3 12.9 69.8- 4.7 1.0---- 2.8------------
1961-07-03 19.6 29.7 9.0 5.5 58.0- 0.0 0.7---- 0.0------------
1961-07-02 17.6 26.7 9.2 6.2 66.3- 0.0 1.0---- 0.0------------
1961-07-01 16.9 24.3 8.1 5.4 74.0- 1.0 1.0---- 0.0------------
1961-06-30 14.8 20.7 11.1 8.5 76.5- 2.7 1.0---- 0.0------------
1961-06-29 12.8 17.9 6.3 3.3 72.8- 3.7 1.3---- 0.0------------
1961-06-28 12.5 20.5 10.1 12.4 80.8- 6.0 3.3---- 1.6------------
1961-06-27 21.7 28.6 13.0 10.2 66.3- 2.7 3.7---- 3.7------------
1961-06-26 18.8 27.8 11.2 8.9 80.8- 5.0 1.0---- 2.5------------
1961-06-25 19.0 27.3 8.5 5.8 66.3- 1.3 2.0---- 0.0------------
1961-06-24 16.8 24.7 8.5 5.9 67.0- 3.3 2.0---- 0.0------------
1961-06-23 15.7 21.3 13.1 9.4 81.8- 5.3 1.7---- 0.0------------
1961-06-22 17.3 24.2 9.1 6.3 66.3- 3.7 1.3---- 7.5------------
1961-06-21 15.6 22.7 5.5 2.9 68.8- 1.0 1.0---- 0.0------------
1961-06-20 13.0 18.7 10.6 10.4 74.5- 3.3 2.0---- 0.0------------
1961-06-19 18.2 27.0 10.2 7.8 78.0- 3.7 2.0---- 0.2------------
1961-06-18 16.7 24.2 7.0 4.4 71.5- 0.3 2.0---- 0.0------------
1961-06-17 13.4 20.8 5.8 2.8 73.3- 2.0 1.0---- 0.0------------
1961-06-16 12.2 18.1 6.6 7.4 73.5- 2.0 2.0---- 0.0------------
262.8 ms

 

Źródłem pochodzenia danych jest Instytut Meteorologii i Gospodarki Wodnej – Państwowy Instytut Badawczy. Dane Instytutu Meteorologii i Gospodarki Wodnej – Państwowego Instytutu Badawczego zostały przetworzone.

Dane źródłowe można odnaleźć na stronie https://dane.imgw.pl